Time;durP1;ratioP1;P1;durP2;ratioP2;P2;SDS_P1;SDS_P2;PMS_P1;PMS_P2;Temp;Humidity;BMP_temperature;BMP_pressure;BME280_temperature;BME280_humidity;BME280_pressure;Samples;Min_cycle;Max_cycle;Signal;HPM_P1;HPM_P2
2022/12/26 00:01:21;;;;;;;7.97;3.60;;;10.10;99.90;;;9.51;100.00;97506.63;5004469;28;20073;-69
2022/12/26 00:03:49;;;;;;;8.00;3.75;;;10.20;99.90;;;9.52;100.00;97513.50;5000068;28;20046;-69
2022/12/26 00:06:23;;;;;;;6.55;3.60;;;10.10;99.90;;;9.48;100.00;97527.47;5001170;28;20148;-69
2022/12/26 00:08:50;;;;;;;6.63;3.88;;;10.10;99.90;;;9.46;100.00;97531.88;4981021;28;20133;-69
2022/12/26 00:11:17;;;;;;;10.13;3.60;;;10.10;99.90;;;9.50;100.00;97536.03;5000794;28;20053;-69
2022/12/26 00:13:45;;;;;;;6.82;3.60;;;10.10;99.90;;;9.48;100.00;97519.69;5003596;28;20069;-69
2022/12/26 00:16:18;;;;;;;8.00;3.30;;;10.10;99.90;;;9.48;100.00;97512.75;4999323;28;20042;-69
2022/12/26 00:18:46;;;;;;;6.25;3.67;;;10.00;99.90;;;9.47;100.00;97531.81;5002601;28;20128;-70
2022/12/26 00:21:15;;;;;;;7.55;4.03;;;10.10;99.90;;;9.47;100.00;97537.00;4985412;28;20050;-69
2022/12/26 00:23:44;;;;;;;7.00;3.90;;;10.20;99.90;;;9.45;100.00;97531.03;4998812;28;20082;-69
2022/12/26 00:26:16;;;;;;;8.40;3.75;;;10.20;99.90;;;9.49;100.00;97522.25;4999031;28;20579;-69
2022/12/26 00:28:44;;;;;;;7.63;3.70;;;10.20;99.90;;;9.42;100.00;97524.22;5000722;28;20164;-69
2022/12/26 00:31:21;;;;;;;5.57;3.45;;;10.20;99.90;;;9.53;100.00;97528.97;4999187;28;20235;-70
2022/12/26 00:33:49;;;;;;;5.43;3.47;;;10.20;99.90;;;9.43;100.00;97522.47;4997408;28;20669;-69
2022/12/26 00:36:23;;;;;;;6.30;3.42;;;10.20;99.90;;;9.55;100.00;97514.19;5000824;28;20491;-69
2022/12/26 00:38:50;;;;;;;7.47;3.28;;;10.20;99.90;;;9.60;100.00;97517.47;5015254;28;20508;-69
2022/12/26 00:41:20;;;;;;;6.50;3.45;;;10.20;99.90;;;9.56;100.00;97517.66;5000222;28;20042;-70
2022/12/26 00:43:47;;;;;;;5.35;2.83;;;10.20;99.90;;;9.57;100.00;97508.97;5001169;28;20484;-70
2022/12/26 00:46:15;;;;;;;4.68;3.00;;;10.20;99.90;;;9.49;100.00;97503.22;4998567;28;20169;-70
2022/12/26 00:48:42;;;;;;;7.20;3.05;;;10.20;99.90;;;9.59;100.00;97509.75;4997953;28;20060;-70
2022/12/26 00:51:09;;;;;;;8.57;3.83;;;10.20;99.90;;;9.55;100.00;97492.63;4999675;28;20042;-70
2022/12/26 00:53:37;;;;;;;7.45;3.20;;;10.20;99.90;;;9.55;100.00;97501.25;5000091;28;20050;-71
2022/12/26 00:56:04;;;;;;;6.30;3.10;;;10.30;99.90;;;9.62;100.00;97496.66;4995954;28;20415;-70
2022/12/26 00:58:31;;;;;;;7.63;3.17;;;10.20;99.90;;;9.66;100.00;97487.88;5000035;28;20152;-71
2022/12/26 01:01:15;;;;;;;5.13;3.15;;;10.20;99.90;;;9.61;100.00;97500.19;4999980;28;20135;-70
2022/12/26 01:03:44;;;;;;;5.00;3.00;;;10.30;99.90;;;9.68;100.00;97504.22;4999395;28;20054;-70
2022/12/26 01:06:13;;;;;;;6.25;3.20;;;10.30;99.90;;;9.68;100.00;97537.06;4998210;28;20069;-70
2022/12/26 01:08:40;;;;;;;11.68;3.28;;;10.40;99.90;;;9.71;100.00;97523.97;5001641;28;20049;-70
2022/12/26 01:11:11;;;;;;;6.15;3.00;;;10.50;99.90;;;9.64;100.00;97531.13;5001455;28;20498;-70
2022/12/26 01:13:38;;;;;;;9.15;3.58;;;10.40;99.90;;;9.74;100.00;97529.88;4997299;28;20514;-71
2022/12/26 01:16:06;;;;;;;6.70;2.90;;;10.40;99.90;;;9.69;100.00;97507.63;5002484;28;20578;-70
2022/12/26 01:18:34;;;;;;;5.22;2.65;;;10.50;99.90;;;9.80;100.00;97524.44;5000755;28;20051;-70
2022/12/26 01:21:06;;;;;;;6.93;3.03;;;10.40;99.90;;;9.83;100.00;97513.13;4999350;28;20052;-70
2022/12/26 01:23:33;;;;;;;5.85;2.78;;;10.50;99.90;;;9.80;100.00;97513.22;5001392;28;20450;-70
2022/12/26 01:26:00;;;;;;;8.98;3.15;;;10.50;99.90;;;9.81;100.00;97530.50;4999866;28;20467;-71
2022/12/26 01:28:45;;;;;;;4.75;2.35;;;10.60;99.90;;;9.92;100.00;97550.78;5001119;28;20046;-71
2022/12/26 01:31:12;;;;;;;6.95;2.60;;;10.60;99.90;;;9.96;100.00;97503.91;5001225;28;20143;-68
2022/12/26 01:33:39;;;;;;;4.60;2.13;;;10.60;99.90;;;9.93;100.00;97504.06;5001224;28;20384;-70
2022/12/26 01:36:06;;;;;;;5.22;2.58;;;10.60;99.90;;;9.95;100.00;97522.16;4997946;28;20049;-70
2022/12/26 01:38:33;;;;;;;7.65;2.63;;;10.60;99.90;;;10.01;100.00;97519.28;4996250;28;20053;-70
2022/12/26 01:41:15;;;;;;;4.93;2.60;;;10.70;99.90;;;10.00;100.00;97526.22;5001478;28;20046;-68
2022/12/26 01:43:57;;;;;;;6.90;2.38;;;10.80;99.90;;;10.10;100.00;97531.88;5005155;28;20156;-71
2022/12/26 01:46:39;;;;;;;4.70;1.90;;;10.80;99.90;;;10.13;100.00;97523.97;5002133;28;20081;-68
2022/12/26 01:49:30;;;;;;;5.93;2.75;;;10.90;99.90;;;10.12;100.00;97539.59;5004346;28;20472;-70
2022/12/26 01:52:03;;;;;;;6.72;2.92;;;10.80;99.90;;;10.15;100.00;97545.50;4999091;28;20086;-70
2022/12/26 01:54:35;;;;;;;6.00;2.33;;;10.80;99.90;;;10.11;100.00;97549.13;5014441;28;20624;-70
2022/12/26 01:57:16;;;;;;;5.38;2.10;;;10.80;99.90;;;10.14;100.00;97535.19;5010872;28;20157;-70
2022/12/26 01:59:45;;;;;;;5.75;1.80;;;10.80;99.90;;;10.13;100.00;97567.22;4996929;28;20041;-70
2022/12/26 02:02:13;;;;;;;5.03;2.17;;;10.80;99.90;;;10.10;100.00;97568.19;4997928;28;20085;-70
2022/12/26 02:07:35;;;;;;;4.10;1.98;;;10.90;99.90;;;10.24;100.00;97573.66;5002888;28;20385;-69
2022/12/26 02:10:05;;;;;;;5.25;1.92;;;10.80;99.90;;;10.18;100.00;97552.31;5004462;28;20451;-70
2022/12/26 02:12:33;;;;;;;5.63;2.60;;;10.80;99.90;;;10.20;100.00;97555.69;4996583;28;20501;-70
2022/12/26 02:15:12;;;;;;;4.45;2.53;;;10.80;99.90;;;10.15;100.00;97550.69;5003071;28;20124;-70
2022/12/26 02:17:40;;;;;;;7.00;2.42;;;10.80;99.90;;;10.14;100.00;97549.00;4998355;28;20437;-70
2022/12/26 02:20:32;;;;;;;8.07;2.40;;;10.70;99.90;;;10.05;100.00;97546.78;4998460;28;20041;-70
2022/12/26 02:23:18;;;;;;;6.25;2.25;;;10.80;99.90;;;10.19;100.00;97552.22;4998266;28;20085;-70
2022/12/26 02:26:18;;;;;;;6.50;2.50;;;10.90;99.90;;;10.16;100.00;97543.75;4998025;28;20050;-70
2022/12/26 02:28:58;;;;;;;5.95;2.10;;;10.90;99.90;;;10.19;100.00;97546.22;5000896;28;20045;-70
2022/12/26 02:32:07;;;;;;;8.25;2.50;;;10.90;99.90;;;10.13;100.00;97541.28;4998330;28;20286;-70
2022/12/26 02:34:59;;;;;;;6.53;2.17;;;10.80;99.90;;;10.12;100.00;97549.97;4994838;28;20057;-70
2022/12/26 02:38:17;;;;;;;4.65;2.33;;;10.80;99.90;;;10.09;100.00;97522.41;4996893;28;20442;-70
2022/12/26 02:41:00;;;;;;;5.68;2.17;;;10.80;99.90;;;10.12;100.00;97537.00;4990961;28;20126;-70
2022/12/26 02:47:01;;;;;;;;;;;10.80;99.90;;;10.04;100.00;97530.38;4995347;28;20375;-70
2022/12/26 02:47:28;;;;;;;5.65;2.20;;;10.80;99.90;;;10.02;100.00;97527.00;4998595;28;19932;-70
2022/12/26 03:14:34;;;;;;;6.27;1.90;;;10.80;99.90;;;10.20;100.00;97516.78;5003850;28;20077;-70
2022/12/26 03:17:18;;;;;;;5.28;2.42;;;10.80;99.90;;;10.16;100.00;97536.81;4999478;28;20061;-70
2022/12/26 03:20:05;;;;;;;9.80;2.40;;;10.80;99.90;;;10.17;100.00;97542.84;5010581;28;20491;-70
2022/12/26 03:22:41;;;;;;;8.80;2.58;;;10.80;99.90;;;10.09;100.00;97524.16;4998308;28;20361;-70
2022/12/26 03:28:04;;;;;;;9.57;2.33;;;10.90;99.90;;;10.15;100.00;97545.50;5002088;28;20054;-70
2022/12/26 03:30:49;;;;;;;6.10;2.22;;;10.90;99.90;;;10.18;100.00;97554.91;4993801;28;20056;-70
2022/12/26 03:36:14;;;;;;;5.22;2.38;;;10.90;99.90;;;10.19;100.00;97541.84;4995617;28;20813;-70
2022/12/26 03:39:06;;;;;;;5.35;1.92;;;10.90;99.90;;;10.13;100.00;97536.13;4994601;28;20050;-70
2022/12/26 04:20:34;;;;;;;5.63;2.53;;;10.60;99.90;;;9.88;100.00;97555.25;5008820;28;20097;-70
2022/12/26 04:44:13;;;;;;;10.43;2.25;;;10.70;99.90;;;10.02;100.00;97580.63;4993972;28;20129;-70
2022/12/26 04:46:44;;;;;;;5.55;2.78;;;10.80;99.90;;;10.05;100.00;97591.69;4997327;28;20046;-70
2022/12/26 04:52:06;;;;;;;7.65;3.20;;;10.90;99.90;;;10.08;100.00;97582.97;5003368;28;20491;-70
2022/12/26 04:54:32;;;;;;;4.70;2.03;;;10.90;99.90;;;10.13;100.00;97570.66;4998359;28;20652;-70
2022/12/26 04:56:59;;;;;;;9.55;3.03;;;10.90;99.90;;;10.09;100.00;97574.28;4992317;28;20050;-70
2022/12/26 04:59:27;;;;;;;7.10;2.70;;;10.90;99.90;;;10.07;100.00;97554.50;4994203;28;20042;-70
2022/12/26 05:10:25;;;;;;;4.38;2.50;;;10.90;99.90;;;10.10;100.00;97575.97;5003622;28;20065;-70
2022/12/26 05:12:52;;;;;;;3.85;1.95;;;11.00;99.90;;;10.19;100.00;97577.34;4998669;28;20046;-70
2022/12/26 05:15:20;;;;;;;6.63;2.42;;;11.00;99.90;;;10.19;100.00;97593.72;4994738;28;20133;-70
2022/12/26 05:29:02;;;;;;;4.85;2.97;;;10.80;99.90;;;9.88;100.00;97590.72;4998679;28;20046;-70
2022/12/26 05:31:30;;;;;;;6.55;2.60;;;10.80;99.90;;;9.93;100.00;97581.00;5006223;28;20082;-70
2022/12/26 05:34:07;;;;;;;5.88;2.70;;;10.60;99.90;;;9.96;100.00;97596.41;4997490;28;20045;-70
2022/12/26 05:36:38;;;;;;;6.40;2.90;;;10.60;99.90;;;9.88;100.00;97604.50;4999715;28;20464;-70
2022/12/26 05:39:07;;;;;;;5.80;2.72;;;10.60;99.90;;;9.87;100.00;97622.72;5002493;28;20049;-70
2022/12/26 05:41:36;;;;;;;7.13;2.58;;;10.50;99.90;;;9.78;100.00;97642.06;4994109;28;20504;-70
2022/12/26 05:44:04;;;;;;;6.43;3.13;;;10.50;99.90;;;9.80;100.00;97617.75;5012248;28;20073;-70
2022/12/26 05:46:30;;;;;;;5.40;3.15;;;10.50;99.90;;;9.80;100.00;97637.66;5011459;28;20057;-70
2022/12/26 05:48:57;;;;;;;6.57;3.05;;;10.50;99.90;;;9.79;100.00;97638.56;4996746;28;20054;-70
2022/12/26 05:51:25;;;;;;;6.72;3.17;;;10.50;99.90;;;9.78;100.00;97645.50;4999027;28;20056;-70
2022/12/26 05:53:52;;;;;;;6.95;3.22;;;10.40;99.90;;;9.73;100.00;97634.47;4998984;28;20062;-70
2022/12/26 05:56:19;;;;;;;9.88;3.30;;;10.30;99.90;;;9.60;100.00;97657.41;5004769;28;20050;-71
2022/12/26 05:58:52;;;;;;;6.03;3.33;;;;;;;9.56;100.00;97663.63;5000294;28;20052;-71
2022/12/26 06:01:20;;;;;;;7.40;3.35;;;10.10;99.90;;;9.48;100.00;97659.59;4994916;28;20372;-71
2022/12/26 06:03:51;;;;;;;6.47;3.67;;;10.00;99.90;;;9.40;100.00;97660.75;4994350;28;20396;-72
2022/12/26 06:06:19;;;;;;;9.32;4.18;;;10.00;99.90;;;9.38;100.00;97657.34;5003203;28;20057;-71
2022/12/26 06:08:48;;;;;;;10.30;3.58;;;10.00;99.90;;;9.27;100.00;97672.44;5000055;28;20042;-71
2022/12/26 06:11:16;;;;;;;7.63;4.00;;;9.90;99.90;;;9.18;100.00;97673.59;4999236;28;20499;-72
2022/12/26 06:13:44;;;;;;;9.15;4.05;;;9.90;99.90;;;9.17;100.00;97682.28;4994883;28;20047;-72
2022/12/26 06:16:15;;;;;;;9.32;4.60;;;9.90;99.90;;;9.22;100.00;97697.66;4989214;28;20046;-72
2022/12/26 06:18:42;;;;;;;9.88;3.20;;;9.80;99.90;;;9.16;100.00;97690.94;4996447;28;20101;-71
2022/12/26 06:21:14;;;;;;;8.57;3.70;;;9.80;99.90;;;9.18;100.00;97704.69;4997296;28;20042;-71
2022/12/26 06:23:42;;;;;;;8.07;3.85;;;9.70;99.90;;;9.13;100.00;97706.59;4998929;28;20064;-71
2022/12/26 06:26:11;;;;;;;8.57;3.85;;;9.70;99.90;;;9.09;100.00;97715.38;4999953;28;20070;-71
2022/12/26 06:28:40;;;;;;;9.43;4.15;;;9.70;99.90;;;9.10;100.00;97704.13;4993295;28;20053;-71
2022/12/26 06:31:13;;;;;;;6.88;4.57;;;9.70;99.90;;;9.06;100.00;97694.75;4998926;28;20062;-71
2022/12/26 06:33:40;;;;;;;9.85;4.90;;;9.70;99.90;;;8.97;100.00;97711.47;4999702;28;20053;-71
2022/12/26 06:36:14;;;;;;;9.25;5.18;;;9.70;99.90;;;9.00;100.00;97720.84;4994298;28;20133;-70
2022/12/26 06:38:42;;;;;;;8.63;4.45;;;9.70;99.90;;;9.04;100.00;97708.66;4997125;28;20510;-71
2022/12/26 06:41:12;;;;;;;10.38;4.88;;;9.70;99.90;;;8.98;100.00;97731.25;4995648;28;20050;-71
2022/12/26 06:43:40;;;;;;;10.07;4.65;;;9.70;99.90;;;8.98;100.00;97736.44;4998372;28;20052;-70
2022/12/26 06:46:12;;;;;;;7.82;4.50;;;9.70;99.90;;;9.00;100.00;97737.22;5004016;28;20089;-71
2022/12/26 06:48:39;;;;;;;13.65;4.90;;;9.70;99.90;;;9.04;100.00;97724.19;5002839;28;20706;-71
2022/12/26 06:51:11;;;;;;;8.65;4.85;;;9.70;99.90;;;9.02;100.00;97721.66;4993683;28;20046;-71
2022/12/26 06:53:39;;;;;;;8.23;4.65;;;9.60;99.90;;;9.06;100.00;97717.22;4998791;28;20054;-70
2022/12/26 06:56:12;;;;;;;11.25;4.90;;;9.60;99.90;;;9.05;100.00;97729.31;4996982;28;20392;-70
2022/12/26 06:58:39;;;;;;;6.63;4.28;;;9.60;99.90;;;9.11;100.00;97723.94;4995051;28;20061;-70
2022/12/26 07:01:18;;;;;;;8.40;3.95;;;9.70;99.90;;;9.06;100.00;97737.94;4997816;28;20038;-70
2022/12/26 07:03:46;;;;;;;7.80;4.45;;;9.70;99.90;;;9.13;100.00;97750.63;4994377;28;20548;-71
2022/12/26 07:06:23;;;;;;;8.20;3.88;;;9.60;99.90;;;9.06;100.00;97758.66;4999339;28;20049;-71
2022/12/26 07:08:52;;;;;;;7.72;4.00;;;9.70;99.90;;;9.07;100.00;97745.63;4989349;28;20060;-71
2022/12/26 07:11:23;;;;;;;8.13;4.40;;;9.70;99.90;;;9.13;100.00;97739.41;5000078;28;20057;-71
2022/12/26 07:13:52;;;;;;;8.93;4.53;;;9.60;99.90;;;9.09;100.00;97733.50;4996951;28;20050;-70
2022/12/26 07:16:19;;;;;;;9.15;4.55;;;9.70;99.90;;;9.07;100.00;97752.56;4994761;28;20050;-71
2022/12/26 07:18:46;;;;;;;6.97;4.47;;;9.70;99.90;;;9.00;100.00;97757.94;4997218;28;20042;-70
2022/12/26 07:21:14;;;;;;;10.77;4.30;;;9.70;99.90;;;9.08;100.00;97746.50;4997757;28;20136;-70
2022/12/26 07:23:42;;;;;;;7.60;4.03;;;9.70;99.90;;;9.11;100.00;97757.59;5003009;28;20409;-71
2022/12/26 07:26:09;;;;;;;9.65;4.47;;;9.70;99.90;;;9.07;100.00;97766.34;4996733;28;20077;-71
2022/12/26 07:28:37;;;;;;;8.13;3.80;;;9.60;99.90;;;9.16;100.00;97752.25;4997212;28;20422;-70
2022/12/26 07:31:04;;;;;;;5.93;3.30;;;9.60;99.90;;;9.04;100.00;97771.66;4996095;28;20064;-70
2022/12/26 07:33:33;;;;;;;7.78;3.35;;;9.60;99.90;;;9.09;100.00;97751.63;5003471;28;20133;-71
2022/12/26 07:36:05;;;;;;;7.18;2.90;;;9.60;99.90;;;9.11;100.00;97755.00;4994198;28;20073;-70
2022/12/26 07:38:32;;;;;;;8.30;4.13;;;9.60;99.90;;;9.10;100.00;97749.88;4998658;28;20051;-71
2022/12/26 07:41:56;;;;;;;10.30;4.20;;;9.70;99.90;;;9.02;100.00;97764.84;4999267;28;20058;-70
2022/12/26 07:43:46;;;;;;;7.93;3.63;;;9.70;99.90;;;9.04;100.00;97779.41;4996078;28;20073;-70
2022/12/26 07:46:13;;;;;;;7.85;4.82;;;9.70;99.90;;;9.03;100.00;97769.94;4995395;28;20054;-70
2022/12/26 07:48:40;;;;;;;8.38;3.58;;;9.70;99.90;;;9.05;100.00;97778.50;4996412;28;20141;-71
2022/12/26 07:51:07;;;;;;;9.18;4.07;;;9.70;99.90;;;8.99;100.00;97787.34;4998637;28;20043;-71
2022/12/26 07:53:34;;;;;;;7.93;3.40;;;9.70;99.90;;;9.02;100.00;97795.91;4988204;28;20060;-71
2022/12/26 07:56:02;;;;;;;8.85;4.22;;;9.70;99.90;;;9.04;100.00;97794.94;4998931;28;20137;-70
2022/12/26 07:58:29;;;;;;;6.10;3.08;;;9.70;99.90;;;9.05;100.00;97791.44;4995083;28;20046;-71
2022/12/26 08:01:02;;;;;;;6.80;2.83;;;9.70;99.90;;;8.99;100.00;97822.75;4998613;28;20062;-70
2022/12/26 08:03:30;;;;;;;5.07;2.38;;;9.70;99.90;;;9.05;100.00;97819.09;4998567;28;20074;-71
2022/12/26 08:05:57;;;;;;;6.38;2.95;;;9.70;99.90;;;9.12;100.00;97805.91;4996980;28;20136;-71
2022/12/26 08:08:24;;;;;;;5.90;2.38;;;9.60;99.90;;;9.06;100.00;97824.22;4997217;28;20323;-71
2022/12/26 08:11:03;;;;;;;5.68;2.75;;;9.70;99.90;;;9.05;100.00;97813.91;4996295;28;20060;-71
2022/12/26 08:13:30;;;;;;;6.22;2.90;;;9.60;99.90;;;9.06;100.00;97803.50;5004283;28;20061;-71
2022/12/26 08:15:59;;;;;;;4.65;2.55;;;9.60;99.90;;;8.98;100.00;97810.69;4997132;28;20069;-71
2022/12/26 08:18:26;;;;;;;7.65;2.90;;;9.50;99.90;;;8.89;100.00;97795.44;4996621;28;20594;-71
2022/12/26 08:20:53;;;;;;;5.50;2.13;;;9.60;99.90;;;8.88;100.00;97798.94;4996786;28;20676;-71
2022/12/26 08:23:20;;;;;;;5.50;2.30;;;9.50;99.90;;;8.92;100.00;97796.19;4995677;28;20046;-71
2022/12/26 08:25:47;;;;;;;6.05;2.47;;;9.50;99.90;;;8.85;100.00;97792.13;4993259;28;20145;-71
2022/12/26 08:28:14;;;;;;;4.57;2.47;;;9.50;99.90;;;8.82;100.00;97802.56;4992402;28;20054;-71
2022/12/26 08:30:41;;;;;;;7.65;3.22;;;9.40;99.90;;;8.87;100.00;97798.09;4994893;28;20060;-71
2022/12/26 08:33:10;;;;;;;7.80;2.75;;;9.40;99.90;;;8.86;100.00;97803.31;4994340;28;20061;-70
2022/12/26 08:35:38;;;;;;;6.22;2.83;;;9.40;99.90;;;8.77;100.00;97779.41;4997715;28;20148;-71
2022/12/26 08:38:05;;;;;;;8.70;3.65;;;9.40;99.90;;;8.85;100.00;97765.38;4994272;28;20611;-71
2022/12/26 08:40:33;;;;;;;6.22;3.00;;;9.40;99.90;;;8.81;100.00;97751.69;4990729;28;20041;-70
2022/12/26 08:43:11;;;;;;;6.70;3.08;;;9.40;99.90;;;8.76;100.00;97771.72;4997271;28;20057;-70
2022/12/26 08:46:09;;;;;;;9.18;3.85;;;9.40;99.90;;;8.75;100.00;97793.28;4999945;28;20412;-70
2022/12/26 08:48:39;;;;;;;5.32;3.38;;;9.50;99.90;;;8.79;100.00;97789.72;4996761;28;20070;-70
2022/12/26 08:51:19;;;;;;;8.27;3.55;;;9.40;99.90;;;8.74;100.00;97815.75;5003072;28;20095;-70
2022/12/26 08:53:51;;;;;;;6.57;4.15;;;9.40;99.90;;;8.76;100.00;97837.25;4997550;28;20476;-70
2022/12/26 08:56:23;;;;;;;7.82;4.18;;;9.40;99.90;;;8.74;100.00;97853.72;4988059;28;20050;-70
2022/12/26 08:58:50;;;;;;;5.78;3.13;;;9.50;99.90;;;8.76;100.00;97849.34;5003257;28;20423;-70
2022/12/26 09:01:28;;;;;;;6.30;2.95;;;9.40;99.90;;;8.75;100.00;97837.28;4998580;28;20060;-70
2022/12/26 09:04:00;;;;;;;5.28;2.92;;;9.50;99.90;;;8.79;100.00;97829.38;4999996;28;20064;-70
2022/12/26 09:06:31;;;;;;;7.18;3.55;;;9.50;99.90;;;8.72;100.00;97814.94;5007456;28;20107;-70
2022/12/26 09:08:59;;;;;;;5.47;2.90;;;9.40;99.90;;;8.76;100.00;97797.59;5000296;28;20053;-70
2022/12/26 09:11:27;;;;;;;6.22;3.33;;;9.50;99.90;;;8.76;100.00;97815.72;4998322;28;20112;-70
2022/12/26 09:13:56;;;;;;;8.55;2.35;;;9.50;99.90;;;8.87;100.00;97828.28;4998989;28;20503;-70
2022/12/26 09:16:28;;;;;;;4.03;2.83;;;9.50;99.90;;;8.85;100.00;97818.00;4998029;28;20080;-70
2022/12/26 09:19:04;;;;;;;7.90;2.63;;;9.50;99.90;;;8.91;100.00;97829.91;4998464;28;20070;-70
2022/12/26 09:21:32;;;;;;;7.55;2.70;;;9.60;99.90;;;8.96;100.00;97846.13;4998295;28;20074;-70
2022/12/26 09:24:03;;;;;;;5.30;2.80;;;9.50;99.90;;;8.92;100.00;97891.16;5000264;28;20074;-70
2022/12/26 09:26:30;;;;;;;5.40;2.35;;;9.50;99.90;;;9.04;100.00;97861.44;5008458;28;20436;-70
2022/12/26 09:28:58;;;;;;;6.50;2.67;;;9.60;99.90;;;9.03;100.00;97857.97;4999465;28;20480;-71
2022/12/26 09:31:34;;;;;;;5.82;2.17;;;9.60;99.90;;;9.05;100.00;97863.94;5005753;28;20497;-70
2022/12/26 09:34:03;;;;;;;6.82;2.22;;;9.70;99.90;;;9.00;100.00;97869.28;4998650;28;20062;-70
2022/12/26 09:36:36;;;;;;;4.82;2.13;;;9.70;99.90;;;9.11;100.00;97855.16;4998958;28;20042;-70
2022/12/26 09:39:04;;;;;;;4.30;2.17;;;9.80;99.90;;;9.11;100.00;97830.09;4999238;28;20047;-70
2022/12/26 09:42:06;;;;;;;5.45;1.95;;;9.80;99.90;;;9.12;100.00;97837.00;4997114;28;20050;-70
2022/12/26 09:44:58;;;;;;;4.05;1.85;;;9.80;99.90;;;9.05;100.00;97842.41;4999098;28;20046;-70
2022/12/26 09:47:53;;;;;;;4.45;2.47;;;9.90;99.90;;;9.11;100.00;97832.69;4994451;28;20057;-70
2022/12/26 09:50:26;;;;;;;3.20;1.98;;;9.90;99.90;;;9.14;100.00;97837.75;5000199;28;20439;-70
2022/12/26 09:53:02;;;;;;;5.90;2.13;;;9.90;99.90;;;9.14;100.00;97844.69;4996212;28;20137;-70
2022/12/26 09:56:05;;;;;;;4.20;2.10;;;9.90;99.90;;;9.13;100.00;97855.97;5000041;28;20047;-70
2022/12/26 09:58:34;;;;;;;6.05;2.20;;;10.00;99.90;;;9.20;100.00;97837.56;5005552;28;20042;-70
2022/12/26 10:01:12;;;;;;;4.68;1.38;;;10.00;99.90;;;9.21;100.00;97864.31;4997246;28;20050;-70
2022/12/26 10:03:55;;;;;;;3.90;2.17;;;9.90;99.90;;;9.30;100.00;97829.50;5001003;28;20183;-70
2022/12/26 10:06:26;;;;;;;4.60;1.92;;;9.90;99.90;;;9.23;100.00;97851.31;4998205;28;20124;-70
2022/12/26 10:09:19;;;;;;;5.45;2.28;;;10.00;99.90;;;9.29;100.00;97857.13;5002182;28;20531;-70
2022/12/26 10:12:05;;;;;;;6.40;2.55;;;10.00;99.90;;;9.22;100.00;97853.06;4997835;28;20272;-70
2022/12/26 10:14:57;;;;;;;5.15;2.05;;;10.00;99.90;;;9.25;100.00;97868.50;4997266;28;20447;-70
2022/12/26 10:17:30;;;;;;;5.70;2.50;;;10.00;99.90;;;9.31;100.00;97876.06;5001660;28;20051;-69
2022/12/26 10:20:32;;;;;;;5.65;1.70;;;10.10;99.90;;;9.30;100.00;97857.97;4999435;28;20057;-70
2022/12/26 10:23:29;;;;;;;4.35;2.08;;;10.10;99.90;;;9.20;100.00;97867.81;4998846;28;20570;-72
2022/12/26 10:26:06;;;;;;;5.07;2.08;;;9.90;99.90;;;9.13;100.00;97856.78;5001122;28;20137;-71
2022/12/26 10:28:42;;;;;;;7.65;2.00;;;9.80;99.90;;;9.17;100.00;97844.59;4999097;28;20045;-72
2022/12/26 10:31:20;;;;;;;5.90;1.73;;;9.80;99.90;;;9.12;100.00;97867.19;4999058;28;20052;-70
2022/12/26 10:34:04;;;;;;;7.90;2.63;;;9.80;99.90;;;9.19;100.00;97884.22;4987355;28;20156;-71
2022/12/26 10:37:23;;;;;;;8.30;2.35;;;9.80;99.90;;;9.19;100.00;97872.16;4996954;28;20050;-70
2022/12/26 10:40:11;;;;;;;4.60;2.10;;;9.80;99.90;;;9.11;100.00;97881.06;4965746;28;20077;-71
2022/12/26 10:42:44;;;;;;;5.28;1.77;;;9.80;99.90;;;9.21;100.00;97888.50;4996497;28;20104;-70
2022/12/26 10:45:16;;;;;;;4.00;1.80;;;9.80;99.90;;;9.21;100.00;97887.63;5011085;28;20042;-70
2022/12/26 10:47:47;;;;;;;4.57;2.45;;;9.90;99.90;;;9.23;100.00;97865.09;5011134;28;20053;-70
2022/12/26 10:50:24;;;;;;;5.40;2.20;;;9.90;99.90;;;9.42;100.00;97860.19;4998522;28;20049;-70
2022/12/26 10:52:55;;;;;;;4.65;2.03;;;9.90;99.90;;;9.36;100.00;97871.59;4993369;28;20060;-70
2022/12/26 10:55:32;;;;;;;5.47;2.03;;;10.00;99.90;;;9.35;100.00;97879.41;4996524;28;20137;-70
2022/12/26 10:58:21;;;;;;;6.63;2.22;;;10.00;99.90;;;9.31;100.00;97870.91;4994189;28;20165;-70
2022/12/26 11:00:49;;;;;;;3.85;1.92;;;10.00;99.90;;;9.43;100.00;97843.72;4999621;28;20056;-70
2022/12/26 11:03:18;;;;;;;5.57;1.77;;;10.00;99.90;;;9.48;100.00;97872.06;4995847;28;20053;-70
2022/12/26 11:05:50;;;;;;;4.55;1.65;;;10.10;99.90;;;9.41;100.00;97877.44;5000402;28;20165;-70
2022/12/26 11:08:46;;;;;;;5.55;1.63;;;10.10;99.90;;;9.46;100.00;97856.56;4997582;28;20046;-70
2022/12/26 11:11:23;;;;;;;5.32;1.90;;;10.10;99.90;;;9.43;100.00;97882.59;4992589;28;20512;-70
2022/12/26 11:14:02;;;;;;;6.30;1.92;;;10.20;99.90;;;9.54;100.00;97869.28;4994915;28;20133;-70
2022/12/26 11:16:39;;;;;;;4.25;1.45;;;10.30;99.90;;;9.58;100.00;97860.50;4996482;28;20046;-68
2022/12/26 11:19:47;;;;;;;5.03;1.63;;;10.30;99.90;;;9.52;100.00;97864.16;5007193;28;20739;-70
2022/12/26 11:22:26;;;;;;;8.27;1.70;;;10.40;99.90;;;9.59;100.00;97859.59;4995810;28;20053;-67
2022/12/26 11:25:08;;;;;;;2.88;1.48;;;10.50;99.90;;;9.69;100.00;97852.34;5001129;28;20104;-70
2022/12/26 11:27:39;;;;;;;7.47;1.90;;;10.50;99.90;;;9.86;100.00;97849.19;4997536;28;20096;-71
2022/12/26 11:30:13;;;;;;;5.95;1.55;;;10.60;99.90;;;9.66;100.00;97853.31;4993821;28;20066;-70
2022/12/26 11:32:41;;;;;;;;;;;10.60;99.90;;;9.61;100.00;97840.50;4996355;28;20053;-68
2022/12/26 11:35:24;;;;;;;4.53;1.52;;;10.60;99.90;;;9.74;100.00;97837.47;4997219;28;19951;-70
2022/12/26 11:37:55;;;;;;;4.43;1.65;;;10.50;99.90;;;9.68;100.00;97837.72;4995779;28;20052;-70
2022/12/26 11:40:29;;;;;;;2.85;1.38;;;10.40;99.90;;;9.65;100.00;97836.06;5001071;28;20069;-70
2022/12/26 11:42:59;;;;;;;7.22;2.00;;;10.50;99.90;;;9.54;100.00;97853.75;4996293;28;20504;-70
2022/12/26 11:45:29;;;;;;;3.00;1.60;;;10.40;99.90;;;9.60;100.00;97843.13;4992335;28;20046;-70
2022/12/26 11:48:21;;;;;;;5.78;2.20;;;10.50;99.90;;;9.69;100.00;97826.44;4993455;28;20129;-70
2022/12/26 11:50:48;;;;;;;5.65;2.00;;;10.60;99.90;;;9.67;100.00;97841.19;4996300;28;20057;-67
2022/12/26 11:53:19;;;;;;;3.60;1.45;;;10.70;99.90;;;9.75;100.00;97847.81;4997218;28;20116;-70
2022/12/26 11:56:00;;;;;;;5.03;2.00;;;10.70;99.90;;;9.79;100.00;97825.22;4997188;28;20510;-71
2022/12/26 11:58:32;;;;;;;4.78;1.50;;;10.70;99.90;;;9.93;100.00;97802.22;4992732;28;20046;-70
2022/12/26 12:00:58;;;;;;;2.03;0.80;;;10.70;99.90;;;9.99;100.00;97804.59;4996041;28;20124;-70
2022/12/26 12:03:42;;;;;;;3.30;1.08;;;10.70;99.90;;;9.84;100.00;97815.53;4994492;28;20077;-68
2022/12/26 12:06:48;;;;;;;3.88;1.25;;;10.70;99.90;;;9.76;100.00;97801.97;4997240;28;20057;-70
2022/12/26 12:09:51;;;;;;;3.60;1.45;;;10.60;99.90;;;9.82;100.00;97807.78;4996871;28;20072;-68
2022/12/26 12:12:56;;;;;;;3.45;1.30;;;10.70;99.90;;;9.74;100.00;97806.38;4995767;28;20069;-70
2022/12/26 12:15:55;;;;;;;4.13;1.55;;;10.70;99.90;;;9.84;100.00;97792.19;4985702;28;20162;-70
2022/12/26 12:18:43;;;;;;;2.80;1.17;;;10.70;99.90;;;9.83;100.00;97788.75;4980264;28;20072;-70
2022/12/26 12:21:19;;;;;;;2.97;1.10;;;10.80;99.90;;;9.88;100.00;97778.22;4993823;28;20161;-67
2022/12/26 12:24:17;;;;;;;4.20;1.05;;;10.80;99.90;;;9.84;100.00;97768.88;4994722;28;20053;-70
2022/12/26 12:27:20;;;;;;;4.45;1.27;;;10.80;99.90;;;9.90;100.00;97758.28;4998344;28;20050;-68
2022/12/26 12:29:56;;;;;;;4.00;1.30;;;10.80;99.90;;;9.92;100.00;97769.44;4995880;28;20145;-70
2022/12/26 12:32:33;;;;;;;3.38;1.50;;;10.80;99.90;;;9.94;100.00;97757.22;4996065;28;20054;-68
2022/12/26 12:35:27;;;;;;;3.20;0.93;;;10.90;99.90;;;10.06;100.00;97748.19;4994788;28;20168;-68
2022/12/26 12:38:24;;;;;;;5.38;1.55;;;10.90;99.90;;;9.91;100.00;97759.94;4995062;28;20148;-70
2022/12/26 12:41:21;;;;;;;6.47;1.20;;;10.90;99.90;;;9.92;100.00;97758.19;4996406;28;20087;-70
2022/12/26 12:44:03;;;;;;;5.22;1.20;;;10.80;99.90;;;9.80;100.00;97746.53;4995040;28;20437;-70
2022/12/26 12:46:36;;;;;;;3.80;1.00;;;10.80;99.90;;;9.87;100.00;97726.41;4996382;28;20050;-70
2022/12/26 12:49:16;;;;;;;;;;;10.80;99.90;;;9.86;100.00;97730.75;4997921;28;20054;-70